sensor_id;sensor_type;location;lat;lon;timestamp;temperature;humidity
18682;DHT22;9471;51.168;4.154;2022-07-26T00:00:20;20.10;99.90
18682;DHT22;9471;51.168;4.154;2022-07-26T00:02:49;20.20;99.90
18682;DHT22;9471;51.168;4.154;2022-07-26T00:05:16;20.20;99.90
18682;DHT22;9471;51.168;4.154;2022-07-26T00:07:43;20.20;99.90
18682;DHT22;9471;51.168;4.154;2022-07-26T00:10:11;20.20;99.90
18682;DHT22;9471;51.168;4.154;2022-07-26T00:12:38;20.10;99.90
18682;DHT22;9471;51.168;4.154;2022-07-26T00:15:08;20.20;99.90
18682;DHT22;9471;51.168;4.154;2022-07-26T00:17:35;20.20;99.90
18682;DHT22;9471;51.168;4.154;2022-07-26T00:20:05;20.20;99.90
18682;DHT22;9471;51.168;4.154;2022-07-26T00:22:32;20.30;99.90
18682;DHT22;9471;51.168;4.154;2022-07-26T00:25:07;20.40;99.90
18682;DHT22;9471;51.168;4.154;2022-07-26T00:27:34;20.40;99.90
18682;DHT22;9471;51.168;4.154;2022-07-26T00:30:03;20.40;99.90
18682;DHT22;9471;51.168;4.154;2022-07-26T00:32:30;20.40;99.90
18682;DHT22;9471;51.168;4.154;2022-07-26T00:34:57;20.50;99.90
18682;DHT22;9471;51.168;4.154;2022-07-26T00:37:25;20.40;99.90
18682;DHT22;9471;51.168;4.154;2022-07-26T00:39:52;20.30;99.90
18682;DHT22;9471;51.168;4.154;2022-07-26T00:42:20;20.30;99.90
18682;DHT22;9471;51.168;4.154;2022-07-26T00:44:47;20.40;99.90
18682;DHT22;9471;51.168;4.154;2022-07-26T00:47:15;20.50;99.90
18682;DHT22;9471;51.168;4.154;2022-07-26T00:49:42;20.50;99.90
18682;DHT22;9471;51.168;4.154;2022-07-26T00:52:10;20.50;99.90
18682;DHT22;9471;51.168;4.154;2022-07-26T00:54:41;20.40;99.90
18682;DHT22;9471;51.168;4.154;2022-07-26T00:57:10;20.40;99.90
18682;DHT22;9471;51.168;4.154;2022-07-26T00:59:37;20.50;99.90
18682;DHT22;9471;51.168;4.154;2022-07-26T01:02:06;20.50;99.90
18682;DHT22;9471;51.168;4.154;2022-07-26T01:04:34;20.60;99.90
18682;DHT22;9471;51.168;4.154;2022-07-26T01:07:02;20.60;99.90
18682;DHT22;9471;51.168;4.154;2022-07-26T01:09:29;20.50;99.90
18682;DHT22;9471;51.168;4.154;2022-07-26T01:11:57;20.50;99.90
18682;DHT22;9471;51.168;4.154;2022-07-26T01:14:25;20.50;99.90
18682;DHT22;9471;51.168;4.154;2022-07-26T01:16:52;20.40;99.90
18682;DHT22;9471;51.168;4.154;2022-07-26T01:19:19;20.40;99.90
18682;DHT22;9471;51.168;4.154;2022-07-26T01:21:48;20.30;99.90
18682;DHT22;9471;51.168;4.154;2022-07-26T01:24:15;20.30;99.90
18682;DHT22;9471;51.168;4.154;2022-07-26T01:26:43;20.40;99.90
18682;DHT22;9471;51.168;4.154;2022-07-26T01:29:10;20.40;99.90
18682;DHT22;9471;51.168;4.154;2022-07-26T01:31:37;20.20;99.90
18682;DHT22;9471;51.168;4.154;2022-07-26T01:34:04;20.30;99.90
18682;DHT22;9471;51.168;4.154;2022-07-26T01:36:31;20.30;99.90
18682;DHT22;9471;51.168;4.154;2022-07-26T01:38:59;20.20;99.90
18682;DHT22;9471;51.168;4.154;2022-07-26T01:41:26;20.20;99.90
18682;DHT22;9471;51.168;4.154;2022-07-26T01:43:53;20.30;99.90
18682;DHT22;9471;51.168;4.154;2022-07-26T01:46:21;20.20;99.90
18682;DHT22;9471;51.168;4.154;2022-07-26T01:48:48;20.10;99.90
18682;DHT22;9471;51.168;4.154;2022-07-26T01:51:15;20.00;99.90
18682;DHT22;9471;51.168;4.154;2022-07-26T01:53:42;20.10;99.90
18682;DHT22;9471;51.168;4.154;2022-07-26T01:56:12;19.90;99.90
18682;DHT22;9471;51.168;4.154;2022-07-26T01:58:39;19.80;99.90
18682;DHT22;9471;51.168;4.154;2022-07-26T02:01:07;19.80;99.90
18682;DHT22;9471;51.168;4.154;2022-07-26T02:03:34;19.80;99.90
18682;DHT22;9471;51.168;4.154;2022-07-26T02:06:01;19.70;99.90
18682;DHT22;9471;51.168;4.154;2022-07-26T02:08:28;19.60;99.90
18682;DHT22;9471;51.168;4.154;2022-07-26T02:10:58;19.60;99.90
18682;DHT22;9471;51.168;4.154;2022-07-26T02:13:30;19.50;99.90
18682;DHT22;9471;51.168;4.154;2022-07-26T02:15:58;19.50;99.90
18682;DHT22;9471;51.168;4.154;2022-07-26T02:18:26;19.50;99.90
18682;DHT22;9471;51.168;4.154;2022-07-26T02:20:54;19.60;99.90
18682;DHT22;9471;51.168;4.154;2022-07-26T02:23:21;19.80;99.90
18682;DHT22;9471;51.168;4.154;2022-07-26T02:25:49;19.80;99.90
18682;DHT22;9471;51.168;4.154;2022-07-26T02:28:16;19.80;99.90
18682;DHT22;9471;51.168;4.154;2022-07-26T02:30:45;19.70;99.90
18682;DHT22;9471;51.168;4.154;2022-07-26T02:33:13;19.70;99.90
18682;DHT22;9471;51.168;4.154;2022-07-26T02:35:40;19.60;99.90
18682;DHT22;9471;51.168;4.154;2022-07-26T02:38:09;19.60;99.90
18682;DHT22;9471;51.168;4.154;2022-07-26T02:40:37;19.80;99.90
18682;DHT22;9471;51.168;4.154;2022-07-26T02:43:05;19.80;99.90
18682;DHT22;9471;51.168;4.154;2022-07-26T02:45:32;19.70;99.90
18682;DHT22;9471;51.168;4.154;2022-07-26T02:48:01;19.80;99.90
18682;DHT22;9471;51.168;4.154;2022-07-26T02:50:28;19.90;99.90
18682;DHT22;9471;51.168;4.154;2022-07-26T02:52:55;20.00;99.90
18682;DHT22;9471;51.168;4.154;2022-07-26T02:55:24;20.00;99.90
18682;DHT22;9471;51.168;4.154;2022-07-26T02:57:51;20.00;99.90
18682;DHT22;9471;51.168;4.154;2022-07-26T03:00:20;20.00;99.90
18682;DHT22;9471;51.168;4.154;2022-07-26T03:02:47;19.90;99.90
18682;DHT22;9471;51.168;4.154;2022-07-26T03:05:17;20.00;99.90
18682;DHT22;9471;51.168;4.154;2022-07-26T03:07:44;19.90;99.90
18682;DHT22;9471;51.168;4.154;2022-07-26T03:10:12;20.10;99.90
18682;DHT22;9471;51.168;4.154;2022-07-26T03:12:39;20.10;99.90
18682;DHT22;9471;51.168;4.154;2022-07-26T03:15:06;20.00;99.90
18682;DHT22;9471;51.168;4.154;2022-07-26T03:17:33;20.00;99.90
18682;DHT22;9471;51.168;4.154;2022-07-26T03:20:01;19.90;99.90
18682;DHT22;9471;51.168;4.154;2022-07-26T03:22:30;19.90;99.90
18682;DHT22;9471;51.168;4.154;2022-07-26T03:24:57;19.90;99.90
18682;DHT22;9471;51.168;4.154;2022-07-26T03:27:24;19.90;99.90
18682;DHT22;9471;51.168;4.154;2022-07-26T03:29:51;20.00;99.90
18682;DHT22;9471;51.168;4.154;2022-07-26T03:32:18;19.80;99.90
18682;DHT22;9471;51.168;4.154;2022-07-26T03:34:45;19.80;99.90
18682;DHT22;9471;51.168;4.154;2022-07-26T03:37:12;19.70;99.90
18682;DHT22;9471;51.168;4.154;2022-07-26T03:39:41;19.70;99.90
18682;DHT22;9471;51.168;4.154;2022-07-26T03:42:08;19.70;99.90
18682;DHT22;9471;51.168;4.154;2022-07-26T03:44:34;19.80;99.90
18682;DHT22;9471;51.168;4.154;2022-07-26T03:47:02;19.70;99.90
18682;DHT22;9471;51.168;4.154;2022-07-26T03:49:31;19.80;99.90
18682;DHT22;9471;51.168;4.154;2022-07-26T03:51:58;19.70;99.90
18682;DHT22;9471;51.168;4.154;2022-07-26T03:54:25;19.70;99.90
18682;DHT22;9471;51.168;4.154;2022-07-26T03:56:53;19.70;99.90
18682;DHT22;9471;51.168;4.154;2022-07-26T03:59:19;19.70;99.90
18682;DHT22;9471;51.168;4.154;2022-07-26T04:01:49;19.80;99.90
18682;DHT22;9471;51.168;4.154;2022-07-26T04:04:16;19.90;99.90
18682;DHT22;9471;51.168;4.154;2022-07-26T04:06:44;20.10;99.90
18682;DHT22;9471;51.168;4.154;2022-07-26T04:09:12;20.10;99.90
18682;DHT22;9471;51.168;4.154;2022-07-26T04:11:40;20.20;99.90
18682;DHT22;9471;51.168;4.154;2022-07-26T04:14:08;20.10;99.90
18682;DHT22;9471;51.168;4.154;2022-07-26T04:16:36;20.20;99.90
18682;DHT22;9471;51.168;4.154;2022-07-26T04:19:02;20.20;99.90
18682;DHT22;9471;51.168;4.154;2022-07-26T04:21:30;20.20;99.90
18682;DHT22;9471;51.168;4.154;2022-07-26T04:23:56;20.10;99.90
18682;DHT22;9471;51.168;4.154;2022-07-26T04:26:24;20.00;99.90
18682;DHT22;9471;51.168;4.154;2022-07-26T04:28:50;20.10;99.90
18682;DHT22;9471;51.168;4.154;2022-07-26T04:31:19;20.10;99.90
18682;DHT22;9471;51.168;4.154;2022-07-26T04:33:46;20.10;99.90
18682;DHT22;9471;51.168;4.154;2022-07-26T04:36:13;20.20;99.90
18682;DHT22;9471;51.168;4.154;2022-07-26T04:38:40;20.20;99.90
18682;DHT22;9471;51.168;4.154;2022-07-26T04:41:07;20.20;99.90
18682;DHT22;9471;51.168;4.154;2022-07-26T04:43:34;20.20;99.90
18682;DHT22;9471;51.168;4.154;2022-07-26T04:46:01;20.20;99.90
18682;DHT22;9471;51.168;4.154;2022-07-26T04:48:30;20.20;99.90
18682;DHT22;9471;51.168;4.154;2022-07-26T04:50:56;20.20;99.90
18682;DHT22;9471;51.168;4.154;2022-07-26T04:53:25;20.30;99.90
18682;DHT22;9471;51.168;4.154;2022-07-26T04:55:52;20.10;99.90
18682;DHT22;9471;51.168;4.154;2022-07-26T04:58:19;20.10;99.90
18682;DHT22;9471;51.168;4.154;2022-07-26T05:00:46;20.00;99.90
18682;DHT22;9471;51.168;4.154;2022-07-26T05:03:13;20.10;99.90
18682;DHT22;9471;51.168;4.154;2022-07-26T05:05:41;20.10;99.90
18682;DHT22;9471;51.168;4.154;2022-07-26T05:08:08;20.10;99.90
18682;DHT22;9471;51.168;4.154;2022-07-26T05:10:36;20.00;99.90
18682;DHT22;9471;51.168;4.154;2022-07-26T05:13:05;20.00;99.90
18682;DHT22;9471;51.168;4.154;2022-07-26T05:15:34;20.00;99.90
18682;DHT22;9471;51.168;4.154;2022-07-26T05:18:02;19.90;99.90
18682;DHT22;9471;51.168;4.154;2022-07-26T05:20:30;19.90;99.90
18682;DHT22;9471;51.168;4.154;2022-07-26T05:22:58;19.90;99.90
18682;DHT22;9471;51.168;4.154;2022-07-26T05:25:26;20.10;99.90
18682;DHT22;9471;51.168;4.154;2022-07-26T05:27:53;20.10;99.90
18682;DHT22;9471;51.168;4.154;2022-07-26T05:30:20;20.20;99.90
18682;DHT22;9471;51.168;4.154;2022-07-26T05:32:47;20.00;99.90
18682;DHT22;9471;51.168;4.154;2022-07-26T05:35:14;19.90;99.90
18682;DHT22;9471;51.168;4.154;2022-07-26T05:37:41;19.90;99.90
18682;DHT22;9471;51.168;4.154;2022-07-26T05:40:11;20.20;99.90
18682;DHT22;9471;51.168;4.154;2022-07-26T05:42:38;20.20;99.90
18682;DHT22;9471;51.168;4.154;2022-07-26T05:45:06;20.20;99.90
18682;DHT22;9471;51.168;4.154;2022-07-26T05:47:33;20.20;99.90
18682;DHT22;9471;51.168;4.154;2022-07-26T05:50:01;20.20;99.90
18682;DHT22;9471;51.168;4.154;2022-07-26T05:52:28;20.10;99.90
18682;DHT22;9471;51.168;4.154;2022-07-26T05:54:55;20.10;99.90
18682;DHT22;9471;51.168;4.154;2022-07-26T05:57:23;20.10;99.90
18682;DHT22;9471;51.168;4.154;2022-07-26T05:59:50;20.20;99.90
18682;DHT22;9471;51.168;4.154;2022-07-26T06:02:17;20.40;99.90
18682;DHT22;9471;51.168;4.154;2022-07-26T06:04:44;20.50;99.90
18682;DHT22;9471;51.168;4.154;2022-07-26T06:07:14;20.50;99.90
18682;DHT22;9471;51.168;4.154;2022-07-26T06:09:41;20.50;99.90
18682;DHT22;9471;51.168;4.154;2022-07-26T06:12:08;20.60;99.90
18682;DHT22;9471;51.168;4.154;2022-07-26T06:14:37;20.60;99.90
18682;DHT22;9471;51.168;4.154;2022-07-26T06:17:04;20.50;99.90
18682;DHT22;9471;51.168;4.154;2022-07-26T06:19:31;20.60;99.90
18682;DHT22;9471;51.168;4.154;2022-07-26T06:21:58;20.80;99.90
18682;DHT22;9471;51.168;4.154;2022-07-26T06:24:25;20.70;99.90
18682;DHT22;9471;51.168;4.154;2022-07-26T06:26:52;20.90;99.90
18682;DHT22;9471;51.168;4.154;2022-07-26T06:29:20;21.00;99.90
18682;DHT22;9471;51.168;4.154;2022-07-26T06:31:49;20.90;99.90
18682;DHT22;9471;51.168;4.154;2022-07-26T06:34:16;21.00;99.90
18682;DHT22;9471;51.168;4.154;2022-07-26T06:36:43;20.90;99.90
18682;DHT22;9471;51.168;4.154;2022-07-26T06:39:10;20.90;99.90
18682;DHT22;9471;51.168;4.154;2022-07-26T06:41:38;21.00;99.90
18682;DHT22;9471;51.168;4.154;2022-07-26T06:44:05;21.00;99.90
18682;DHT22;9471;51.168;4.154;2022-07-26T06:46:32;20.90;99.90
18682;DHT22;9471;51.168;4.154;2022-07-26T06:49:00;20.80;99.90
18682;DHT22;9471;51.168;4.154;2022-07-26T06:51:27;20.70;99.90
18682;DHT22;9471;51.168;4.154;2022-07-26T06:53:54;20.80;99.90
18682;DHT22;9471;51.168;4.154;2022-07-26T06:56:21;20.90;99.90
18682;DHT22;9471;51.168;4.154;2022-07-26T06:58:48;21.00;99.90
18682;DHT22;9471;51.168;4.154;2022-07-26T07:01:15;21.00;99.90
18682;DHT22;9471;51.168;4.154;2022-07-26T07:03:42;20.90;99.90
18682;DHT22;9471;51.168;4.154;2022-07-26T07:06:11;21.00;99.90
18682;DHT22;9471;51.168;4.154;2022-07-26T07:08:38;21.00;99.90
18682;DHT22;9471;51.168;4.154;2022-07-26T07:11:05;21.00;99.90
18682;DHT22;9471;51.168;4.154;2022-07-26T07:13:32;20.90;99.90
18682;DHT22;9471;51.168;4.154;2022-07-26T07:15:59;21.00;99.90
18682;DHT22;9471;51.168;4.154;2022-07-26T07:18:26;20.80;99.90
18682;DHT22;9471;51.168;4.154;2022-07-26T07:20:53;20.80;99.90
18682;DHT22;9471;51.168;4.154;2022-07-26T07:23:21;20.70;99.90
18682;DHT22;9471;51.168;4.154;2022-07-26T07:25:48;20.70;99.90
18682;DHT22;9471;51.168;4.154;2022-07-26T07:28:15;20.70;99.90
18682;DHT22;9471;51.168;4.154;2022-07-26T07:30:42;20.70;99.90
18682;DHT22;9471;51.168;4.154;2022-07-26T07:33:09;20.70;99.90
18682;DHT22;9471;51.168;4.154;2022-07-26T07:35:43;20.70;99.90
18682;DHT22;9471;51.168;4.154;2022-07-26T07:38:10;20.80;99.90
18682;DHT22;9471;51.168;4.154;2022-07-26T07:40:38;21.00;99.90
18682;DHT22;9471;51.168;4.154;2022-07-26T07:43:05;21.00;99.90
18682;DHT22;9471;51.168;4.154;2022-07-26T07:45:32;21.00;99.90
18682;DHT22;9471;51.168;4.154;2022-07-26T07:47:59;20.90;99.90
18682;DHT22;9471;51.168;4.154;2022-07-26T07:50:26;21.00;99.90
18682;DHT22;9471;51.168;4.154;2022-07-26T07:52:53;20.90;99.90
18682;DHT22;9471;51.168;4.154;2022-07-26T07:55:21;20.90;99.90
18682;DHT22;9471;51.168;4.154;2022-07-26T07:57:49;21.00;99.90
18682;DHT22;9471;51.168;4.154;2022-07-26T08:00:17;21.20;99.90
18682;DHT22;9471;51.168;4.154;2022-07-26T08:02:44;21.50;99.90
18682;DHT22;9471;51.168;4.154;2022-07-26T08:05:12;21.60;99.90
18682;DHT22;9471;51.168;4.154;2022-07-26T08:07:39;21.60;99.90
18682;DHT22;9471;51.168;4.154;2022-07-26T08:10:07;21.80;99.90
18682;DHT22;9471;51.168;4.154;2022-07-26T08:12:34;21.90;99.90
18682;DHT22;9471;51.168;4.154;2022-07-26T08:15:03;22.10;99.90
18682;DHT22;9471;51.168;4.154;2022-07-26T08:17:31;22.10;99.90
18682;DHT22;9471;51.168;4.154;2022-07-26T08:19:57;22.10;99.90
18682;DHT22;9471;51.168;4.154;2022-07-26T08:22:24;21.80;99.90
18682;DHT22;9471;51.168;4.154;2022-07-26T08:24:51;21.80;99.90
18682;DHT22;9471;51.168;4.154;2022-07-26T08:27:18;22.00;99.90
18682;DHT22;9471;51.168;4.154;2022-07-26T08:29:46;22.20;99.90
18682;DHT22;9471;51.168;4.154;2022-07-26T08:32:14;22.20;99.90
18682;DHT22;9471;51.168;4.154;2022-07-26T08:34:41;22.30;99.90
18682;DHT22;9471;51.168;4.154;2022-07-26T08:37:08;22.50;99.90
18682;DHT22;9471;51.168;4.154;2022-07-26T08:39:35;22.50;99.90
18682;DHT22;9471;51.168;4.154;2022-07-26T08:42:03;22.50;99.90
18682;DHT22;9471;51.168;4.154;2022-07-26T08:44:30;22.50;99.90
18682;DHT22;9471;51.168;4.154;2022-07-26T08:46:57;22.60;99.90
18682;DHT22;9471;51.168;4.154;2022-07-26T08:49:25;22.70;99.90
18682;DHT22;9471;51.168;4.154;2022-07-26T08:51:52;22.90;99.90
18682;DHT22;9471;51.168;4.154;2022-07-26T08:54:19;22.90;99.90
18682;DHT22;9471;51.168;4.154;2022-07-26T08:56:50;22.90;99.90
18682;DHT22;9471;51.168;4.154;2022-07-26T08:59:18;23.00;99.90
18682;DHT22;9471;51.168;4.154;2022-07-26T09:01:56;23.00;99.90
18682;DHT22;9471;51.168;4.154;2022-07-26T09:04:27;22.90;99.90
18682;DHT22;9471;51.168;4.154;2022-07-26T09:06:57;22.90;99.90
18682;DHT22;9471;51.168;4.154;2022-07-26T09:09:25;22.80;99.90
18682;DHT22;9471;51.168;4.154;2022-07-26T09:11:53;22.50;99.90
18682;DHT22;9471;51.168;4.154;2022-07-26T09:14:21;22.50;99.90
18682;DHT22;9471;51.168;4.154;2022-07-26T09:16:58;22.60;99.90
18682;DHT22;9471;51.168;4.154;2022-07-26T09:19:27;22.50;99.90
18682;DHT22;9471;51.168;4.154;2022-07-26T09:21:54;22.40;99.90
18682;DHT22;9471;51.168;4.154;2022-07-26T09:24:32;22.10;99.90
18682;DHT22;9471;51.168;4.154;2022-07-26T09:27:01;21.60;99.90
18682;DHT22;9471;51.168;4.154;2022-07-26T09:29:28;21.10;99.90
18682;DHT22;9471;51.168;4.154;2022-07-26T09:32:12;20.60;99.90
18682;DHT22;9471;51.168;4.154;2022-07-26T09:34:44;20.30;99.90
18682;DHT22;9471;51.168;4.154;2022-07-26T09:37:11;20.00;99.90
18682;DHT22;9471;51.168;4.154;2022-07-26T09:39:53;19.80;99.90
18682;DHT22;9471;51.168;4.154;2022-07-26T09:42:22;19.80;99.90
18682;DHT22;9471;51.168;4.154;2022-07-26T09:44:49;19.90;99.90
18682;DHT22;9471;51.168;4.154;2022-07-26T09:47:17;20.00;99.90
18682;DHT22;9471;51.168;4.154;2022-07-26T09:49:45;20.00;99.90
18682;DHT22;9471;51.168;4.154;2022-07-26T09:52:14;20.00;99.90
18682;DHT22;9471;51.168;4.154;2022-07-26T09:54:41;20.20;99.90
18682;DHT22;9471;51.168;4.154;2022-07-26T09:57:10;20.30;99.90
18682;DHT22;9471;51.168;4.154;2022-07-26T09:59:37;20.60;99.90
18682;DHT22;9471;51.168;4.154;2022-07-26T10:02:04;20.90;99.90
18682;DHT22;9471;51.168;4.154;2022-07-26T10:04:32;21.10;99.90
18682;DHT22;9471;51.168;4.154;2022-07-26T10:07:00;21.30;99.90
18682;DHT22;9471;51.168;4.154;2022-07-26T10:09:33;21.40;99.90
18682;DHT22;9471;51.168;4.154;2022-07-26T10:12:04;21.50;99.90
18682;DHT22;9471;51.168;4.154;2022-07-26T10:14:40;21.60;99.90
18682;DHT22;9471;51.168;4.154;2022-07-26T10:20:42;22.00;99.90
18682;DHT22;9471;51.168;4.154;2022-07-26T10:23:40;22.00;99.90
18682;DHT22;9471;51.168;4.154;2022-07-26T10:26:09;21.60;99.90
18682;DHT22;9471;51.168;4.154;2022-07-26T10:28:39;21.20;99.90
18682;DHT22;9471;51.168;4.154;2022-07-26T10:31:29;21.00;99.90
18682;DHT22;9471;51.168;4.154;2022-07-26T10:33:57;20.60;99.90
18682;DHT22;9471;51.168;4.154;2022-07-26T10:36:31;20.60;99.90
18682;DHT22;9471;51.168;4.154;2022-07-26T10:39:09;20.60;99.90
18682;DHT22;9471;51.168;4.154;2022-07-26T10:41:39;20.70;99.90
18682;DHT22;9471;51.168;4.154;2022-07-26T10:44:17;20.50;99.90
18682;DHT22;9471;51.168;4.154;2022-07-26T10:47:10;20.50;99.90
18682;DHT22;9471;51.168;4.154;2022-07-26T10:49:41;20.40;99.90
18682;DHT22;9471;51.168;4.154;2022-07-26T10:52:11;20.30;99.90
18682;DHT22;9471;51.168;4.154;2022-07-26T10:55:14;20.20;99.90
18682;DHT22;9471;51.168;4.154;2022-07-26T10:57:43;20.10;99.90
18682;DHT22;9471;51.168;4.154;2022-07-26T11:00:21;19.90;99.90
18682;DHT22;9471;51.168;4.154;2022-07-26T11:02:53;19.70;99.90
18682;DHT22;9471;51.168;4.154;2022-07-26T11:05:21;19.60;99.90
18682;DHT22;9471;51.168;4.154;2022-07-26T11:07:59;19.30;99.90
18682;DHT22;9471;51.168;4.154;2022-07-26T11:10:33;19.20;99.90
18682;DHT22;9471;51.168;4.154;2022-07-26T11:13:03;19.30;99.90
18682;DHT22;9471;51.168;4.154;2022-07-26T11:15:30;19.50;99.90
18682;DHT22;9471;51.168;4.154;2022-07-26T11:18:06;19.60;99.90
18682;DHT22;9471;51.168;4.154;2022-07-26T11:20:33;19.80;99.90
18682;DHT22;9471;51.168;4.154;2022-07-26T11:23:00;20.00;99.90
18682;DHT22;9471;51.168;4.154;2022-07-26T11:25:27;20.00;99.90
18682;DHT22;9471;51.168;4.154;2022-07-26T11:28:00;20.20;99.90
18682;DHT22;9471;51.168;4.154;2022-07-26T11:30:27;20.30;99.90
18682;DHT22;9471;51.168;4.154;2022-07-26T11:32:55;20.40;99.90
18682;DHT22;9471;51.168;4.154;2022-07-26T11:35:24;20.60;99.90
18682;DHT22;9471;51.168;4.154;2022-07-26T11:37:53;20.70;99.90
18682;DHT22;9471;51.168;4.154;2022-07-26T11:40:41;20.70;99.90
18682;DHT22;9471;51.168;4.154;2022-07-26T11:43:09;21.00;99.90
18682;DHT22;9471;51.168;4.154;2022-07-26T11:45:36;21.10;99.90
18682;DHT22;9471;51.168;4.154;2022-07-26T11:48:04;21.30;99.90
18682;DHT22;9471;51.168;4.154;2022-07-26T11:50:31;21.50;99.90
18682;DHT22;9471;51.168;4.154;2022-07-26T11:52:58;21.70;99.90
18682;DHT22;9471;51.168;4.154;2022-07-26T11:55:27;21.60;99.90
18682;DHT22;9471;51.168;4.154;2022-07-26T11:57:54;21.50;99.90
18682;DHT22;9471;51.168;4.154;2022-07-26T12:00:23;21.20;99.90
18682;DHT22;9471;51.168;4.154;2022-07-26T12:02:50;20.90;99.90
18682;DHT22;9471;51.168;4.154;2022-07-26T12:05:19;20.50;99.90
18682;DHT22;9471;51.168;4.154;2022-07-26T12:07:54;20.30;99.90
18682;DHT22;9471;51.168;4.154;2022-07-26T12:10:22;20.10;99.90
18682;DHT22;9471;51.168;4.154;2022-07-26T12:12:49;19.80;99.90
18682;DHT22;9471;51.168;4.154;2022-07-26T12:15:15;19.50;99.90
18682;DHT22;9471;51.168;4.154;2022-07-26T12:17:59;19.50;99.90
18682;DHT22;9471;51.168;4.154;2022-07-26T12:20:26;19.40;99.90
18682;DHT22;9471;51.168;4.154;2022-07-26T12:22:54;19.20;99.90
18682;DHT22;9471;51.168;4.154;2022-07-26T12:25:25;19.00;99.90
18682;DHT22;9471;51.168;4.154;2022-07-26T12:27:52;19.10;99.90
18682;DHT22;9471;51.168;4.154;2022-07-26T12:30:20;19.20;99.90
18682;DHT22;9471;51.168;4.154;2022-07-26T12:32:48;19.40;99.90
18682;DHT22;9471;51.168;4.154;2022-07-26T12:35:27;19.30;99.90
18682;DHT22;9471;51.168;4.154;2022-07-26T12:37:56;19.40;99.90
18682;DHT22;9471;51.168;4.154;2022-07-26T12:40:24;19.50;99.90
18682;DHT22;9471;51.168;4.154;2022-07-26T12:42:55;19.50;99.90
18682;DHT22;9471;51.168;4.154;2022-07-26T12:45:25;19.80;99.90
18682;DHT22;9471;51.168;4.154;2022-07-26T12:47:55;19.80;99.90
18682;DHT22;9471;51.168;4.154;2022-07-26T12:50:27;19.80;99.90
18682;DHT22;9471;51.168;4.154;2022-07-26T12:52:59;19.90;99.90
18682;DHT22;9471;51.168;4.154;2022-07-26T12:55:27;20.00;99.90
18682;DHT22;9471;51.168;4.154;2022-07-26T12:57:54;20.10;99.90
18682;DHT22;9471;51.168;4.154;2022-07-26T13:00:21;20.30;99.90
18682;DHT22;9471;51.168;4.154;2022-07-26T13:02:48;20.40;99.90
18682;DHT22;9471;51.168;4.154;2022-07-26T13:05:15;20.40;99.90
18682;DHT22;9471;51.168;4.154;2022-07-26T13:07:44;20.60;99.90
18682;DHT22;9471;51.168;4.154;2022-07-26T13:10:11;20.70;99.90
18682;DHT22;9471;51.168;4.154;2022-07-26T13:12:38;20.80;99.90
18682;DHT22;9471;51.168;4.154;2022-07-26T13:15:06;21.00;99.90
18682;DHT22;9471;51.168;4.154;2022-07-26T13:17:33;20.80;99.90
18682;DHT22;9471;51.168;4.154;2022-07-26T13:20:00;20.70;99.90
18682;DHT22;9471;51.168;4.154;2022-07-26T13:22:29;20.60;99.90
18682;DHT22;9471;51.168;4.154;2022-07-26T13:24:57;20.50;99.90
18682;DHT22;9471;51.168;4.154;2022-07-26T13:27:24;20.50;99.90
18682;DHT22;9471;51.168;4.154;2022-07-26T13:29:51;20.40;99.90
18682;DHT22;9471;51.168;4.154;2022-07-26T13:32:18;20.60;99.90
18682;DHT22;9471;51.168;4.154;2022-07-26T13:34:45;20.80;99.90
18682;DHT22;9471;51.168;4.154;2022-07-26T13:37:11;20.90;99.90
18682;DHT22;9471;51.168;4.154;2022-07-26T13:39:38;21.00;99.90
18682;DHT22;9471;51.168;4.154;2022-07-26T13:42:07;21.10;99.90
18682;DHT22;9471;51.168;4.154;2022-07-26T13:44:35;21.10;99.90
18682;DHT22;9471;51.168;4.154;2022-07-26T13:47:02;21.20;99.90
18682;DHT22;9471;51.168;4.154;2022-07-26T13:49:29;21.00;99.90
18682;DHT22;9471;51.168;4.154;2022-07-26T13:51:56;20.70;99.90
18682;DHT22;9471;51.168;4.154;2022-07-26T13:54:25;20.70;99.90
18682;DHT22;9471;51.168;4.154;2022-07-26T13:56:53;20.80;99.90
18682;DHT22;9471;51.168;4.154;2022-07-26T13:59:21;20.90;99.90
18682;DHT22;9471;51.168;4.154;2022-07-26T14:01:49;21.10;99.90
18682;DHT22;9471;51.168;4.154;2022-07-26T14:04:17;21.40;99.90
18682;DHT22;9471;51.168;4.154;2022-07-26T14:06:44;21.60;99.90
18682;DHT22;9471;51.168;4.154;2022-07-26T14:09:11;21.80;99.90
18682;DHT22;9471;51.168;4.154;2022-07-26T14:11:38;21.90;99.90
18682;DHT22;9471;51.168;4.154;2022-07-26T14:14:06;22.00;99.90
18682;DHT22;9471;51.168;4.154;2022-07-26T14:16:35;22.00;99.90
18682;DHT22;9471;51.168;4.154;2022-07-26T14:19:02;22.00;99.90
18682;DHT22;9471;51.168;4.154;2022-07-26T14:21:32;21.90;99.90
18682;DHT22;9471;51.168;4.154;2022-07-26T14:23:59;21.70;99.90
18682;DHT22;9471;51.168;4.154;2022-07-26T14:26:27;21.80;99.90
18682;DHT22;9471;51.168;4.154;2022-07-26T14:28:54;21.80;99.90
18682;DHT22;9471;51.168;4.154;2022-07-26T14:31:21;21.90;99.90
18682;DHT22;9471;51.168;4.154;2022-07-26T14:33:49;21.70;99.90
18682;DHT22;9471;51.168;4.154;2022-07-26T14:36:16;21.70;99.90
18682;DHT22;9471;51.168;4.154;2022-07-26T14:38:44;21.50;99.90
18682;DHT22;9471;51.168;4.154;2022-07-26T14:41:12;21.60;99.90
18682;DHT22;9471;51.168;4.154;2022-07-26T14:43:39;21.80;99.90
18682;DHT22;9471;51.168;4.154;2022-07-26T14:46:07;21.80;99.90
18682;DHT22;9471;51.168;4.154;2022-07-26T14:48:34;21.70;99.90
18682;DHT22;9471;51.168;4.154;2022-07-26T14:51:04;21.80;99.90
18682;DHT22;9471;51.168;4.154;2022-07-26T14:53:31;21.90;99.90
18682;DHT22;9471;51.168;4.154;2022-07-26T14:55:58;21.70;99.90
18682;DHT22;9471;51.168;4.154;2022-07-26T14:58:25;21.90;99.90
18682;DHT22;9471;51.168;4.154;2022-07-26T15:00:52;22.10;99.90
18682;DHT22;9471;51.168;4.154;2022-07-26T15:03:19;22.20;99.90
18682;DHT22;9471;51.168;4.154;2022-07-26T15:05:46;22.30;99.90
18682;DHT22;9471;51.168;4.154;2022-07-26T15:08:14;22.50;99.90
18682;DHT22;9471;51.168;4.154;2022-07-26T15:10:41;22.70;99.90
18682;DHT22;9471;51.168;4.154;2022-07-26T15:13:08;22.80;99.90
18682;DHT22;9471;51.168;4.154;2022-07-26T15:15:36;22.90;99.90
18682;DHT22;9471;51.168;4.154;2022-07-26T15:18:03;22.90;99.90
18682;DHT22;9471;51.168;4.154;2022-07-26T15:20:30;22.90;99.90
18682;DHT22;9471;51.168;4.154;2022-07-26T15:22:58;22.80;99.90
18682;DHT22;9471;51.168;4.154;2022-07-26T15:25:27;22.90;99.90
18682;DHT22;9471;51.168;4.154;2022-07-26T15:27:54;22.90;99.90
18682;DHT22;9471;51.168;4.154;2022-07-26T15:30:21;23.10;99.90
18682;DHT22;9471;51.168;4.154;2022-07-26T15:32:48;23.20;99.90
18682;DHT22;9471;51.168;4.154;2022-07-26T15:35:15;23.30;99.90
18682;DHT22;9471;51.168;4.154;2022-07-26T15:37:44;23.40;99.90
18682;DHT22;9471;51.168;4.154;2022-07-26T15:40:12;23.80;99.90
18682;DHT22;9471;51.168;4.154;2022-07-26T15:42:42;24.00;99.90
18682;DHT22;9471;51.168;4.154;2022-07-26T15:45:10;24.00;99.90
18682;DHT22;9471;51.168;4.154;2022-07-26T15:47:38;23.90;99.90
18682;DHT22;9471;51.168;4.154;2022-07-26T15:50:07;23.60;99.90
18682;DHT22;9471;51.168;4.154;2022-07-26T15:52:36;23.30;99.90
18682;DHT22;9471;51.168;4.154;2022-07-26T15:55:04;23.00;99.90